No se requiere ningun cuidado especial respecto a la situación metereológica.   -   No hay avisos

Informes METAR

 

KSJC - San Jose, California, USA
Distancia de la estación: NE 14km
Actualización: 20/05/2022 15:53
Parcialmente nuboso
Parcialmente nuboso
 Viento de NO
Viento: NO 9 km/h
Temperatura: 13°C
Rocío: 4°C
Humedad: 55%
Barómetro: 1010.2 hPa
Nubes: Parcialmente nuboso
Visibilidad: 14 km
Detalles de las nubes: Poco nuboso 2438 m
Poco nuboso 3353 m
Parcialmente nuboso 4877 m
2022/05/20 13:53 KSJC 201353Z 32005KT 9SM FEW080 FEW110 SCT160 13/04 A2983 RMK AO2 SLP101 T01280039
KNUQ - Moffett Nas/Mtn, California, USA
Distancia de la estación: N 14km
Actualización: 20/05/2022 15:55
Despejado
Despejado
 Viento de NNO
Viento: NNO 9 km/h
Temperatura: 13°C
Rocío: 2°C
Humedad: 47%
Barómetro: 1010.5 hPa
Nubes: Despejado
Visibilidad: 16 km
2022/05/20 13:55 KNUQ 201355Z AUTO 34005KT 10SM CLR 13/02 A2984 RMK AO2
 
KPAO - Palo Alto, California, USA
Distancia de la estación: NNO 23km
Actualización: 20/05/2022 15:47
Despejado
Despejado
 Viento de calm
Viento: Calma
Temperatura: 11°C
Rocío: 4°C
Humedad: 62%
Barómetro: 1010.8 hPa
Nubes: Despejado
Visibilidad: 16 km
2022/05/20 13:47 KPAO 201347Z 00000KT 10SM SKC 11/04 A2985 RMK LAST
KRHV - San Jose/Reid, California, USA
Distancia de la estación: ENE 19km
Actualización: 20/05/2022 15:50
Poco nuboso
Poco nuboso
 Viento de calm
Viento: Calma
Temperatura: 12°C
Rocío: 7°C
Humedad: 72%
Barómetro: 1010.5 hPa
Nubes: Poco nuboso
Visibilidad: 16 km
Detalles de las nubes: Poco nuboso 4572 m
2022/05/20 13:50 KRHV 201350Z 00000KT 10SM FEW150 12/07 A2984
 
KOAK - Oakland, California, USA
Distancia de la estación: NNO 50km
Actualización: 20/05/2022 15:53
Muy nuboso
Muy nuboso
 Viento de calm
Viento: Calma
Temperatura: 13°C
Rocío: 6°C
Humedad: 63%
Barómetro: 1010.5 hPa
Nubes: Muy nuboso
Visibilidad: 16 km
Detalles de las nubes: Poco nuboso 1829 m
Muy nuboso 6096 m
2022/05/20 13:53 KOAK 201353Z 00000KT 10SM FEW060 BKN200 13/06 A2984 RMK AO2 SLP105 T01280061
KSQL - San Carlos Airpo, California, USA
Distancia de la estación: NO 34km
Actualización: 20/05/2022 15:55
Despejado
Despejado
 Viento de calm
Viento: Calma
Temperatura: 13°C
Rocío: 3°C
Humedad: 51%
Barómetro: 1010.8 hPa
Nubes: Despejado
Visibilidad: 16 km
2022/05/20 13:55 KSQL 201355Z AUTO 00000KT 10SM CLR 13/03 A2985 RMK AO2
 
KSFO - San Francisco, California, USA
Distancia de la estación: NO 49km
Actualización: 20/05/2022 15:56
Poco nuboso
Poco nuboso
 Viento de ONO
Viento: ONO 26 km/h
Temperatura: 11°C
Rocío: 6°C
Humedad: 72%
Barómetro: 1010.5 hPa
Nubes: Poco nuboso
Visibilidad: 16 km
Detalles de las nubes: Poco nuboso 6096 m
2022/05/20 13:56 KSFO 201356Z 29014KT 10SM FEW200 11/06 A2984 RMK AO2 SLP103 T01060056
KE16 - San Martin, California, USA
Distancia de la estación: ESE 43km
Actualización: 20/05/2022 15:55
Despejado
Despejado
 Viento de NNO
Viento: NNO 9 km/h
Temperatura: 11°C
Rocío: 5°C
Humedad: 67%
Barómetro: 1010.5 hPa
Nubes: Despejado
Visibilidad: 14 km
2022/05/20 13:55 KE16 201355Z AUTO 34005KT 9SM CLR 11/05 A2984 RMK AO2
 
KWVI - Watsonville, California, USA
Distancia de la estación: SSE 44km
Actualización: 20/05/2022 15:53
Despejado
Despejado
 Viento de calm
Viento: Calma
Temperatura: 9°C
Rocío: 6°C
Humedad: 82%
Barómetro: 1010.2 hPa
Nubes: Despejado
Visibilidad: 11 km
2022/05/20 13:53 KWVI 201353Z AUTO 00000KT 7SM CLR 09/06 A2983 RMK AO2 SLP100 T00890061
KHAF - Half Moon Bay, California, USA
Distancia de la estación: ONO 50km
Actualización: 20/05/2022 15:55
Neblina, Despejado
Neblina, Despejado
 Viento de N
Viento: N 19 km/h
Temperatura: 9°C
Sensación térmica: 6°C
Rocío: 7°C
Humedad: 87%
Barómetro: 1010.8 hPa
Resumen: Neblina
Nubes: Despejado
Visibilidad: 5 km
2022/05/20 13:55 KHAF 201355Z AUTO 35010KT 3SM BR CLR 09/07 A2985 RMK AO2
 
KHWD - Hayward, California, USA
Distancia de la estación: N 44km
Actualización: 20/05/2022 15:54
Despejado
Despejado
 Viento de calm
Viento: Calma
Temperatura: 11°C
Rocío: 7°C
Humedad: 77%
Barómetro: 1010.5 hPa
Nubes: Despejado
Visibilidad: 16 km
2022/05/20 13:54 KHWD 201354Z 00000KT 10SM CLR 11/07 A2984 RMK AO2 SLP113 T01110072
KLVK - Livermore, California, USA
Distancia de la estación: NNE 51km
Actualización: 20/05/2022 15:53
Despejado
Despejado
 Viento de S
Viento: S 6 km/h
Temperatura: 11°C
Rocío: 7°C
Humedad: 77%
Barómetro: 1010.2 hPa
Nubes: Despejado
Visibilidad: 16 km
2022/05/20 13:53 KLVK 201353Z 19003KT 10SM CLR 11/07 A2983 RMK AO2 SLP097 T01060067